sensor_id;sensor_type;location;lat;lon;timestamp;P1;durP1;ratioP1;P2;durP2;ratioP2
7253;SDS011;4060;49.186;9.226;2023-06-22T00:00:43;3.85;;;3.53;;
7253;SDS011;4060;49.186;9.226;2023-06-22T00:03:14;5.07;;;4.00;;
7253;SDS011;4060;49.186;9.226;2023-06-22T00:05:44;4.40;;;4.00;;
7253;SDS011;4060;49.186;9.226;2023-06-22T00:08:13;4.40;;;4.00;;
7253;SDS011;4060;49.186;9.226;2023-06-22T00:10:46;4.55;;;4.25;;
7253;SDS011;4060;49.186;9.226;2023-06-22T00:13:16;4.60;;;4.20;;
7253;SDS011;4060;49.186;9.226;2023-06-22T00:15:45;4.65;;;4.10;;
7253;SDS011;4060;49.186;9.226;2023-06-22T00:18:15;5.88;;;4.07;;
7253;SDS011;4060;49.186;9.226;2023-06-22T00:20:44;4.38;;;3.72;;
7253;SDS011;4060;49.186;9.226;2023-06-22T00:23:13;4.57;;;4.18;;
7253;SDS011;4060;49.186;9.226;2023-06-22T00:25:43;4.13;;;3.60;;
7253;SDS011;4060;49.186;9.226;2023-06-22T00:28:15;4.38;;;3.92;;
7253;SDS011;4060;49.186;9.226;2023-06-22T00:30:44;3.75;;;3.45;;
7253;SDS011;4060;49.186;9.226;2023-06-22T00:33:14;5.03;;;4.50;;
7253;SDS011;4060;49.186;9.226;2023-06-22T00:35:43;4.10;;;3.70;;
7253;SDS011;4060;49.186;9.226;2023-06-22T00:38:12;5.03;;;4.15;;
7253;SDS011;4060;49.186;9.226;2023-06-22T00:40:42;4.82;;;3.85;;
7253;SDS011;4060;49.186;9.226;2023-06-22T00:43:13;4.40;;;4.00;;
7253;SDS011;4060;49.186;9.226;2023-06-22T00:45:43;3.97;;;3.67;;
7253;SDS011;4060;49.186;9.226;2023-06-22T00:48:12;4.65;;;4.00;;
7253;SDS011;4060;49.186;9.226;2023-06-22T00:50:43;5.50;;;3.92;;
7253;SDS011;4060;49.186;9.226;2023-06-22T00:53:14;4.68;;;4.10;;
7253;SDS011;4060;49.186;9.226;2023-06-22T00:55:44;3.97;;;3.67;;
7253;SDS011;4060;49.186;9.226;2023-06-22T00:58:15;4.85;;;4.40;;
7253;SDS011;4060;49.186;9.226;2023-06-22T01:00:47;3.63;;;3.30;;
7253;SDS011;4060;49.186;9.226;2023-06-22T01:03:17;4.82;;;4.32;;
7253;SDS011;4060;49.186;9.226;2023-06-22T01:05:48;4.40;;;4.00;;
7253;SDS011;4060;49.186;9.226;2023-06-22T01:08:23;4.00;;;3.55;;
7253;SDS011;4060;49.186;9.226;2023-06-22T01:11:00;3.97;;;3.70;;
7253;SDS011;4060;49.186;9.226;2023-06-22T01:13:37;4.55;;;4.15;;
7253;SDS011;4060;49.186;9.226;2023-06-22T01:16:12;3.92;;;3.33;;
7253;SDS011;4060;49.186;9.226;2023-06-22T01:18:47;3.90;;;3.60;;
7253;SDS011;4060;49.186;9.226;2023-06-22T01:21:19;4.50;;;4.10;;
7253;SDS011;4060;49.186;9.226;2023-06-22T01:23:59;4.43;;;4.03;;
7253;SDS011;4060;49.186;9.226;2023-06-22T01:26:59;4.53;;;4.10;;
7253;SDS011;4060;49.186;9.226;2023-06-22T01:29:41;4.90;;;4.13;;
7253;SDS011;4060;49.186;9.226;2023-06-22T01:32:11;5.07;;;4.13;;
7253;SDS011;4060;49.186;9.226;2023-06-22T01:34:41;5.85;;;4.30;;
7253;SDS011;4060;49.186;9.226;2023-06-22T01:37:11;4.70;;;4.22;;
7253;SDS011;4060;49.186;9.226;2023-06-22T01:39:43;5.07;;;4.57;;
7253;SDS011;4060;49.186;9.226;2023-06-22T01:42:13;4.70;;;4.30;;
7253;SDS011;4060;49.186;9.226;2023-06-22T01:44:45;4.70;;;4.30;;
7253;SDS011;4060;49.186;9.226;2023-06-22T01:47:14;4.70;;;4.30;;
7253;SDS011;4060;49.186;9.226;2023-06-22T01:49:44;4.95;;;4.10;;
7253;SDS011;4060;49.186;9.226;2023-06-22T01:52:14;4.97;;;4.47;;
7253;SDS011;4060;49.186;9.226;2023-06-22T01:57:51;5.15;;;4.10;;
7253;SDS011;4060;49.186;9.226;2023-06-22T02:00:21;5.63;;;4.57;;
7253;SDS011;4060;49.186;9.226;2023-06-22T02:02:53;5.20;;;4.30;;
7253;SDS011;4060;49.186;9.226;2023-06-22T02:05:28;4.82;;;4.15;;
7253;SDS011;4060;49.186;9.226;2023-06-22T02:08:03;5.85;;;5.03;;
7253;SDS011;4060;49.186;9.226;2023-06-22T02:10:48;4.75;;;4.22;;
7253;SDS011;4060;49.186;9.226;2023-06-22T02:13:19;4.63;;;4.22;;
7253;SDS011;4060;49.186;9.226;2023-06-22T02:15:50;5.50;;;4.93;;
7253;SDS011;4060;49.186;9.226;2023-06-22T02:18:20;5.03;;;4.53;;
7253;SDS011;4060;49.186;9.226;2023-06-22T02:20:51;5.80;;;4.32;;
7253;SDS011;4060;49.186;9.226;2023-06-22T02:23:20;4.60;;;4.15;;
7253;SDS011;4060;49.186;9.226;2023-06-22T02:25:50;5.38;;;4.47;;
7253;SDS011;4060;49.186;9.226;2023-06-22T02:28:19;5.28;;;4.38;;
7253;SDS011;4060;49.186;9.226;2023-06-22T02:30:51;5.05;;;4.55;;
7253;SDS011;4060;49.186;9.226;2023-06-22T02:33:20;4.80;;;4.40;;
7253;SDS011;4060;49.186;9.226;2023-06-22T02:35:50;4.55;;;4.15;;
7253;SDS011;4060;49.186;9.226;2023-06-22T02:38:20;5.28;;;4.78;;
7253;SDS011;4060;49.186;9.226;2023-06-22T02:40:50;5.45;;;4.45;;
7253;SDS011;4060;49.186;9.226;2023-06-22T02:43:19;4.85;;;4.45;;
7253;SDS011;4060;49.186;9.226;2023-06-22T02:45:51;4.90;;;4.40;;
7253;SDS011;4060;49.186;9.226;2023-06-22T02:48:20;6.03;;;4.22;;
7253;SDS011;4060;49.186;9.226;2023-06-22T02:50:49;4.70;;;4.30;;
7253;SDS011;4060;49.186;9.226;2023-06-22T02:53:19;5.15;;;4.65;;
7253;SDS011;4060;49.186;9.226;2023-06-22T02:55:48;5.18;;;4.78;;
7253;SDS011;4060;49.186;9.226;2023-06-22T03:01:23;4.80;;;4.40;;
7253;SDS011;4060;49.186;9.226;2023-06-22T03:03:53;5.80;;;4.78;;
7253;SDS011;4060;49.186;9.226;2023-06-22T03:06:23;4.80;;;4.40;;
7253;SDS011;4060;49.186;9.226;2023-06-22T03:08:57;5.15;;;4.72;;
7253;SDS011;4060;49.186;9.226;2023-06-22T03:11:30;5.25;;;4.75;;
7253;SDS011;4060;49.186;9.226;2023-06-22T03:14:00;6.38;;;4.93;;
7253;SDS011;4060;49.186;9.226;2023-06-22T03:16:32;5.47;;;4.78;;
7253;SDS011;4060;49.186;9.226;2023-06-22T03:19:02;5.75;;;4.45;;
7253;SDS011;4060;49.186;9.226;2023-06-22T03:21:32;4.82;;;4.43;;
7253;SDS011;4060;49.186;9.226;2023-06-22T03:24:01;7.00;;;5.00;;
7253;SDS011;4060;49.186;9.226;2023-06-22T03:26:31;4.70;;;4.30;;
7253;SDS011;4060;49.186;9.226;2023-06-22T03:29:00;5.35;;;4.85;;
7253;SDS011;4060;49.186;9.226;2023-06-22T03:31:30;5.35;;;4.85;;
7253;SDS011;4060;49.186;9.226;2023-06-22T03:34:01;5.05;;;4.55;;
7253;SDS011;4060;49.186;9.226;2023-06-22T03:36:31;4.82;;;4.30;;
7253;SDS011;4060;49.186;9.226;2023-06-22T03:39:00;4.55;;;4.15;;
7253;SDS011;4060;49.186;9.226;2023-06-22T03:41:30;5.55;;;4.82;;
7253;SDS011;4060;49.186;9.226;2023-06-22T03:43:59;4.97;;;4.40;;
7253;SDS011;4060;49.186;9.226;2023-06-22T03:46:28;5.10;;;4.57;;
7253;SDS011;4060;49.186;9.226;2023-06-22T03:48:59;6.50;;;5.00;;
7253;SDS011;4060;49.186;9.226;2023-06-22T03:51:29;5.45;;;4.72;;
7253;SDS011;4060;49.186;9.226;2023-06-22T03:53:59;5.20;;;4.70;;
7253;SDS011;4060;49.186;9.226;2023-06-22T03:56:28;4.90;;;4.50;;
7253;SDS011;4060;49.186;9.226;2023-06-22T03:58:58;5.85;;;4.55;;
7253;SDS011;4060;49.186;9.226;2023-06-22T04:01:27;5.47;;;4.97;;
7253;SDS011;4060;49.186;9.226;2023-06-22T04:03:56;5.43;;;4.65;;
7253;SDS011;4060;49.186;9.226;2023-06-22T04:06:27;5.80;;;4.82;;
7253;SDS011;4060;49.186;9.226;2023-06-22T04:08:56;5.15;;;4.70;;
7253;SDS011;4060;49.186;9.226;2023-06-22T04:11:26;4.50;;;4.13;;
7253;SDS011;4060;49.186;9.226;2023-06-22T04:13:56;6.15;;;5.18;;
7253;SDS011;4060;49.186;9.226;2023-06-22T04:16:25;5.25;;;4.75;;
7253;SDS011;4060;49.186;9.226;2023-06-22T04:18:54;5.30;;;4.88;;
7253;SDS011;4060;49.186;9.226;2023-06-22T04:21:25;5.55;;;5.05;;
7253;SDS011;4060;49.186;9.226;2023-06-22T04:23:54;5.90;;;4.65;;
7253;SDS011;4060;49.186;9.226;2023-06-22T04:26:24;5.13;;;4.55;;
7253;SDS011;4060;49.186;9.226;2023-06-22T04:28:53;5.30;;;4.80;;
7253;SDS011;4060;49.186;9.226;2023-06-22T04:31:22;6.00;;;5.43;;
7253;SDS011;4060;49.186;9.226;2023-06-22T04:33:53;5.85;;;5.20;;
7253;SDS011;4060;49.186;9.226;2023-06-22T04:36:22;5.47;;;4.95;;
7253;SDS011;4060;49.186;9.226;2023-06-22T04:38:57;5.68;;;4.93;;
7253;SDS011;4060;49.186;9.226;2023-06-22T04:41:27;5.80;;;5.20;;
7253;SDS011;4060;49.186;9.226;2023-06-22T04:44:03;5.93;;;5.32;;
7253;SDS011;4060;49.186;9.226;2023-06-22T04:46:33;7.22;;;5.70;;
7253;SDS011;4060;49.186;9.226;2023-06-22T04:49:05;5.72;;;5.22;;
7253;SDS011;4060;49.186;9.226;2023-06-22T04:51:39;5.90;;;5.30;;
7253;SDS011;4060;49.186;9.226;2023-06-22T04:54:09;6.72;;;5.35;;
7253;SDS011;4060;49.186;9.226;2023-06-22T04:56:38;5.30;;;4.90;;
7253;SDS011;4060;49.186;9.226;2023-06-22T04:59:08;6.13;;;5.07;;
7253;SDS011;4060;49.186;9.226;2023-06-22T05:01:39;6.65;;;5.93;;
7253;SDS011;4060;49.186;9.226;2023-06-22T05:04:08;6.32;;;5.43;;
7253;SDS011;4060;49.186;9.226;2023-06-22T05:06:39;5.50;;;5.07;;
7253;SDS011;4060;49.186;9.226;2023-06-22T05:09:08;5.50;;;5.10;;
7253;SDS011;4060;49.186;9.226;2023-06-22T05:11:38;6.05;;;5.45;;
7253;SDS011;4060;49.186;9.226;2023-06-22T05:14:07;6.40;;;5.03;;
7253;SDS011;4060;49.186;9.226;2023-06-22T05:16:36;5.13;;;4.72;;
7253;SDS011;4060;49.186;9.226;2023-06-22T05:19:06;5.47;;;4.85;;
7253;SDS011;4060;49.186;9.226;2023-06-22T05:21:35;5.43;;;4.90;;
7253;SDS011;4060;49.186;9.226;2023-06-22T05:24:06;8.20;;;5.63;;
7253;SDS011;4060;49.186;9.226;2023-06-22T05:26:36;7.30;;;5.35;;
7253;SDS011;4060;49.186;9.226;2023-06-22T05:29:06;8.80;;;5.68;;
7253;SDS011;4060;49.186;9.226;2023-06-22T05:31:35;6.32;;;5.72;;
7253;SDS011;4060;49.186;9.226;2023-06-22T05:34:06;5.82;;;5.22;;
7253;SDS011;4060;49.186;9.226;2023-06-22T05:36:35;5.93;;;5.32;;
7253;SDS011;4060;49.186;9.226;2023-06-22T05:39:13;5.93;;;5.43;;
7253;SDS011;4060;49.186;9.226;2023-06-22T05:41:42;6.22;;;5.63;;
7253;SDS011;4060;49.186;9.226;2023-06-22T05:44:14;7.82;;;5.90;;
7253;SDS011;4060;49.186;9.226;2023-06-22T05:46:44;8.18;;;5.57;;
7253;SDS011;4060;49.186;9.226;2023-06-22T05:49:14;5.85;;;5.35;;
7253;SDS011;4060;49.186;9.226;2023-06-22T05:51:44;7.15;;;5.47;;
7253;SDS011;4060;49.186;9.226;2023-06-22T05:54:15;6.38;;;5.70;;
7253;SDS011;4060;49.186;9.226;2023-06-22T05:56:45;7.82;;;5.97;;
7253;SDS011;4060;49.186;9.226;2023-06-22T05:59:14;6.68;;;5.18;;
7253;SDS011;4060;49.186;9.226;2023-06-22T06:01:44;6.78;;;5.32;;
7253;SDS011;4060;49.186;9.226;2023-06-22T06:04:16;5.55;;;5.05;;
7253;SDS011;4060;49.186;9.226;2023-06-22T06:06:45;8.55;;;5.65;;
7253;SDS011;4060;49.186;9.226;2023-06-22T06:09:17;6.30;;;5.70;;
7253;SDS011;4060;49.186;9.226;2023-06-22T06:11:46;5.80;;;5.30;;
7253;SDS011;4060;49.186;9.226;2023-06-22T06:14:16;6.60;;;5.43;;
7253;SDS011;4060;49.186;9.226;2023-06-22T06:16:46;5.55;;;5.07;;
7253;SDS011;4060;49.186;9.226;2023-06-22T06:19:17;7.10;;;5.53;;
7253;SDS011;4060;49.186;9.226;2023-06-22T06:21:46;5.70;;;5.20;;
7253;SDS011;4060;49.186;9.226;2023-06-22T06:24:20;6.80;;;6.10;;
7253;SDS011;4060;49.186;9.226;2023-06-22T06:26:49;5.80;;;5.20;;
7253;SDS011;4060;49.186;9.226;2023-06-22T06:29:19;7.53;;;5.70;;
7253;SDS011;4060;49.186;9.226;2023-06-22T06:31:49;5.90;;;5.40;;
7253;SDS011;4060;49.186;9.226;2023-06-22T06:34:20;5.93;;;5.40;;
7253;SDS011;4060;49.186;9.226;2023-06-22T06:36:49;6.57;;;5.50;;
7253;SDS011;4060;49.186;9.226;2023-06-22T06:39:20;6.15;;;5.53;;
7253;SDS011;4060;49.186;9.226;2023-06-22T06:41:50;5.72;;;5.22;;
7253;SDS011;4060;49.186;9.226;2023-06-22T06:44:20;5.63;;;5.13;;
7253;SDS011;4060;49.186;9.226;2023-06-22T06:46:49;5.90;;;5.30;;
7253;SDS011;4060;49.186;9.226;2023-06-22T06:49:20;5.85;;;5.35;;
7253;SDS011;4060;49.186;9.226;2023-06-22T06:51:50;7.55;;;4.93;;
7253;SDS011;4060;49.186;9.226;2023-06-22T06:54:21;7.97;;;5.15;;
7253;SDS011;4060;49.186;9.226;2023-06-22T06:56:50;5.55;;;4.93;;
7253;SDS011;4060;49.186;9.226;2023-06-22T06:59:20;6.43;;;5.20;;
7253;SDS011;4060;49.186;9.226;2023-06-22T07:01:49;5.57;;;5.07;;
7253;SDS011;4060;49.186;9.226;2023-06-22T07:04:19;5.22;;;4.72;;
7253;SDS011;4060;49.186;9.226;2023-06-22T07:06:48;5.32;;;4.68;;
7253;SDS011;4060;49.186;9.226;2023-06-22T07:09:17;6.85;;;5.20;;
7253;SDS011;4060;49.186;9.226;2023-06-22T07:11:49;5.30;;;4.80;;
7253;SDS011;4060;49.186;9.226;2023-06-22T07:14:18;5.32;;;4.82;;
7253;SDS011;4060;49.186;9.226;2023-06-22T07:16:47;5.03;;;4.60;;
7253;SDS011;4060;49.186;9.226;2023-06-22T07:19:16;5.90;;;5.35;;
7253;SDS011;4060;49.186;9.226;2023-06-22T07:21:54;5.55;;;5.05;;
7253;SDS011;4060;49.186;9.226;2023-06-22T07:24:23;5.30;;;4.90;;
7253;SDS011;4060;49.186;9.226;2023-06-22T07:26:55;5.43;;;4.93;;
7253;SDS011;4060;49.186;9.226;2023-06-22T07:29:25;5.22;;;4.82;;
7253;SDS011;4060;49.186;9.226;2023-06-22T07:31:55;5.38;;;4.88;;
7253;SDS011;4060;49.186;9.226;2023-06-22T07:34:25;4.72;;;4.25;;
7253;SDS011;4060;49.186;9.226;2023-06-22T07:36:55;5.13;;;4.45;;
7253;SDS011;4060;49.186;9.226;2023-06-22T07:39:26;5.47;;;4.68;;
7253;SDS011;4060;49.186;9.226;2023-06-22T07:41:57;5.15;;;4.65;;
7253;SDS011;4060;49.186;9.226;2023-06-22T07:44:26;4.80;;;4.30;;
7253;SDS011;4060;49.186;9.226;2023-06-22T07:46:55;5.25;;;4.60;;
7253;SDS011;4060;49.186;9.226;2023-06-22T07:49:24;5.32;;;4.82;;
7253;SDS011;4060;49.186;9.226;2023-06-22T07:51:56;5.28;;;4.75;;
7253;SDS011;4060;49.186;9.226;2023-06-22T07:54:25;5.47;;;4.55;;
7253;SDS011;4060;49.186;9.226;2023-06-22T07:56:57;5.53;;;4.25;;
7253;SDS011;4060;49.186;9.226;2023-06-22T07:59:26;5.40;;;4.20;;
7253;SDS011;4060;49.186;9.226;2023-06-22T08:01:56;5.70;;;4.80;;
7253;SDS011;4060;49.186;9.226;2023-06-22T08:04:25;4.50;;;4.20;;
7253;SDS011;4060;49.186;9.226;2023-06-22T08:06:57;4.70;;;4.30;;
7253;SDS011;4060;49.186;9.226;2023-06-22T08:09:27;4.75;;;4.35;;
7253;SDS011;4060;49.186;9.226;2023-06-22T08:11:58;4.95;;;4.50;;
7253;SDS011;4060;49.186;9.226;2023-06-22T08:14:29;5.05;;;4.53;;
7253;SDS011;4060;49.186;9.226;2023-06-22T08:17:02;5.35;;;4.00;;
7253;SDS011;4060;49.186;9.226;2023-06-22T08:19:33;5.85;;;4.85;;
7253;SDS011;4060;49.186;9.226;2023-06-22T08:22:02;7.32;;;4.60;;
7253;SDS011;4060;49.186;9.226;2023-06-22T08:24:32;6.00;;;4.95;;
7253;SDS011;4060;49.186;9.226;2023-06-22T08:27:04;4.25;;;3.95;;
7253;SDS011;4060;49.186;9.226;2023-06-22T08:29:39;5.25;;;4.45;;
7253;SDS011;4060;49.186;9.226;2023-06-22T08:32:09;5.22;;;4.38;;
7253;SDS011;4060;49.186;9.226;2023-06-22T08:34:38;5.15;;;4.63;;
7253;SDS011;4060;49.186;9.226;2023-06-22T08:37:09;5.05;;;4.53;;
7253;SDS011;4060;49.186;9.226;2023-06-22T08:39:38;5.18;;;4.65;;
7253;SDS011;4060;49.186;9.226;2023-06-22T08:42:10;4.88;;;3.92;;
7253;SDS011;4060;49.186;9.226;2023-06-22T08:44:41;4.90;;;4.15;;
7253;SDS011;4060;49.186;9.226;2023-06-22T08:47:11;4.38;;;3.97;;
7253;SDS011;4060;49.186;9.226;2023-06-22T08:49:40;4.88;;;4.38;;
7253;SDS011;4060;49.186;9.226;2023-06-22T08:52:10;4.70;;;3.95;;
7253;SDS011;4060;49.186;9.226;2023-06-22T08:54:39;4.63;;;4.20;;
7253;SDS011;4060;49.186;9.226;2023-06-22T08:57:10;6.05;;;4.47;;
7253;SDS011;4060;49.186;9.226;2023-06-22T08:59:40;4.22;;;3.83;;
7253;SDS011;4060;49.186;9.226;2023-06-22T09:02:09;4.72;;;4.07;;
7253;SDS011;4060;49.186;9.226;2023-06-22T09:04:38;5.28;;;4.50;;
7253;SDS011;4060;49.186;9.226;2023-06-22T09:07:08;5.60;;;4.28;;
7253;SDS011;4060;49.186;9.226;2023-06-22T09:09:37;5.53;;;4.40;;
7253;SDS011;4060;49.186;9.226;2023-06-22T09:12:07;4.95;;;3.95;;
7253;SDS011;4060;49.186;9.226;2023-06-22T09:14:40;4.75;;;4.07;;
7253;SDS011;4060;49.186;9.226;2023-06-22T09:17:09;5.10;;;4.15;;
7253;SDS011;4060;49.186;9.226;2023-06-22T09:19:51;6.20;;;4.60;;
7253;SDS011;4060;49.186;9.226;2023-06-22T09:22:21;5.53;;;4.20;;
7253;SDS011;4060;49.186;9.226;2023-06-22T09:24:55;4.93;;;4.43;;
7253;SDS011;4060;49.186;9.226;2023-06-22T09:27:25;5.47;;;4.85;;
7253;SDS011;4060;49.186;9.226;2023-06-22T09:29:55;6.85;;;4.55;;
7253;SDS011;4060;49.186;9.226;2023-06-22T09:32:25;6.68;;;4.50;;
7253;SDS011;4060;49.186;9.226;2023-06-22T09:34:54;4.78;;;4.25;;
7253;SDS011;4060;49.186;9.226;2023-06-22T09:37:23;4.43;;;4.03;;
7253;SDS011;4060;49.186;9.226;2023-06-22T09:39:52;9.07;;;4.55;;
7253;SDS011;4060;49.186;9.226;2023-06-22T09:42:21;5.10;;;4.60;;
7253;SDS011;4060;49.186;9.226;2023-06-22T09:44:52;8.52;;;4.82;;
7253;SDS011;4060;49.186;9.226;2023-06-22T09:47:22;6.00;;;4.72;;
7253;SDS011;4060;49.186;9.226;2023-06-22T09:49:51;5.28;;;4.78;;
7253;SDS011;4060;49.186;9.226;2023-06-22T09:52:21;4.70;;;4.20;;
7253;SDS011;4060;49.186;9.226;2023-06-22T09:54:50;5.00;;;4.50;;
7253;SDS011;4060;49.186;9.226;2023-06-22T09:57:20;6.82;;;4.80;;
7253;SDS011;4060;49.186;9.226;2023-06-22T09:59:49;5.18;;;4.68;;
7253;SDS011;4060;49.186;9.226;2023-06-22T10:02:22;5.15;;;4.65;;
7253;SDS011;4060;49.186;9.226;2023-06-22T10:04:51;5.18;;;4.68;;
7253;SDS011;4060;49.186;9.226;2023-06-22T10:07:20;6.55;;;4.80;;
7253;SDS011;4060;49.186;9.226;2023-06-22T10:09:50;5.50;;;4.95;;
7253;SDS011;4060;49.186;9.226;2023-06-22T10:12:19;5.68;;;4.30;;
7253;SDS011;4060;49.186;9.226;2023-06-22T10:14:49;5.05;;;4.55;;
7253;SDS011;4060;49.186;9.226;2023-06-22T10:17:20;7.35;;;4.68;;
7253;SDS011;4060;49.186;9.226;2023-06-22T10:19:49;6.05;;;4.03;;
7253;SDS011;4060;49.186;9.226;2023-06-22T10:22:18;4.95;;;4.28;;
7253;SDS011;4060;49.186;9.226;2023-06-22T10:24:48;5.45;;;4.72;;
7253;SDS011;4060;49.186;9.226;2023-06-22T10:27:18;5.10;;;4.55;;
7253;SDS011;4060;49.186;9.226;2023-06-22T10:29:48;5.63;;;5.13;;
7253;SDS011;4060;49.186;9.226;2023-06-22T10:32:17;6.10;;;4.72;;
7253;SDS011;4060;49.186;9.226;2023-06-22T10:34:48;6.40;;;4.70;;
7253;SDS011;4060;49.186;9.226;2023-06-22T10:37:18;4.82;;;4.43;;
7253;SDS011;4060;49.186;9.226;2023-06-22T10:40:02;4.75;;;4.18;;
7253;SDS011;4060;49.186;9.226;2023-06-22T10:42:32;6.35;;;4.75;;
7253;SDS011;4060;49.186;9.226;2023-06-22T10:45:02;5.38;;;4.88;;
7253;SDS011;4060;49.186;9.226;2023-06-22T10:47:33;5.40;;;4.90;;
7253;SDS011;4060;49.186;9.226;2023-06-22T10:50:03;6.68;;;4.93;;
7253;SDS011;4060;49.186;9.226;2023-06-22T10:52:33;5.28;;;4.78;;
7253;SDS011;4060;49.186;9.226;2023-06-22T10:55:02;5.30;;;4.43;;
7253;SDS011;4060;49.186;9.226;2023-06-22T10:57:32;5.47;;;4.75;;
7253;SDS011;4060;49.186;9.226;2023-06-22T11:00:02;7.20;;;4.60;;
7253;SDS011;4060;49.186;9.226;2023-06-22T11:02:35;5.45;;;4.95;;
7253;SDS011;4060;49.186;9.226;2023-06-22T11:05:04;6.18;;;4.30;;
7253;SDS011;4060;49.186;9.226;2023-06-22T11:07:34;7.35;;;5.40;;
7253;SDS011;4060;49.186;9.226;2023-06-22T11:10:05;6.13;;;4.78;;
7253;SDS011;4060;49.186;9.226;2023-06-22T11:12:35;5.32;;;4.82;;
7253;SDS011;4060;49.186;9.226;2023-06-22T11:15:05;5.63;;;4.88;;
7253;SDS011;4060;49.186;9.226;2023-06-22T11:17:36;7.22;;;4.32;;
7253;SDS011;4060;49.186;9.226;2023-06-22T11:20:06;5.85;;;5.13;;
7253;SDS011;4060;49.186;9.226;2023-06-22T11:22:37;6.50;;;5.05;;
7253;SDS011;4060;49.186;9.226;2023-06-22T11:25:07;8.00;;;5.45;;
7253;SDS011;4060;49.186;9.226;2023-06-22T11:27:37;5.43;;;4.93;;
7253;SDS011;4060;49.186;9.226;2023-06-22T11:30:09;5.43;;;4.47;;
7253;SDS011;4060;49.186;9.226;2023-06-22T11:32:40;5.32;;;4.50;;
7253;SDS011;4060;49.186;9.226;2023-06-22T11:35:09;6.95;;;4.68;;
7253;SDS011;4060;49.186;9.226;2023-06-22T11:37:38;6.07;;;5.00;;
7253;SDS011;4060;49.186;9.226;2023-06-22T11:40:09;6.85;;;4.97;;
7253;SDS011;4060;49.186;9.226;2023-06-22T11:42:39;5.82;;;5.20;;
7253;SDS011;4060;49.186;9.226;2023-06-22T11:45:08;6.38;;;5.20;;
7253;SDS011;4060;49.186;9.226;2023-06-22T11:47:41;5.55;;;5.00;;
7253;SDS011;4060;49.186;9.226;2023-06-22T11:50:10;5.88;;;5.35;;
7253;SDS011;4060;49.186;9.226;2023-06-22T11:52:39;5.20;;;4.80;;
7253;SDS011;4060;49.186;9.226;2023-06-22T11:55:09;6.93;;;4.88;;
7253;SDS011;4060;49.186;9.226;2023-06-22T11:57:38;6.05;;;5.45;;
7253;SDS011;4060;49.186;9.226;2023-06-22T12:00:26;5.80;;;5.22;;
7253;SDS011;4060;49.186;9.226;2023-06-22T12:02:57;5.40;;;4.80;;
7253;SDS011;4060;49.186;9.226;2023-06-22T12:05:27;5.78;;;5.18;;
7253;SDS011;4060;49.186;9.226;2023-06-22T12:07:56;6.05;;;4.60;;
7253;SDS011;4060;49.186;9.226;2023-06-22T12:10:26;5.78;;;4.70;;
7253;SDS011;4060;49.186;9.226;2023-06-22T12:12:57;5.57;;;5.07;;
7253;SDS011;4060;49.186;9.226;2023-06-22T12:15:27;5.80;;;5.13;;
7253;SDS011;4060;49.186;9.226;2023-06-22T12:18:03;5.55;;;4.95;;
7253;SDS011;4060;49.186;9.226;2023-06-22T12:20:32;5.60;;;4.97;;
7253;SDS011;4060;49.186;9.226;2023-06-22T12:23:02;7.45;;;5.10;;
7253;SDS011;4060;49.186;9.226;2023-06-22T12:25:32;5.03;;;4.60;;
7253;SDS011;4060;49.186;9.226;2023-06-22T12:28:01;5.85;;;5.25;;
7253;SDS011;4060;49.186;9.226;2023-06-22T12:30:32;5.25;;;4.85;;
7253;SDS011;4060;49.186;9.226;2023-06-22T12:33:04;5.82;;;5.13;;
7253;SDS011;4060;49.186;9.226;2023-06-22T12:35:34;5.80;;;5.05;;
7253;SDS011;4060;49.186;9.226;2023-06-22T12:38:03;6.88;;;4.88;;
7253;SDS011;4060;49.186;9.226;2023-06-22T12:40:34;6.53;;;5.90;;
7253;SDS011;4060;49.186;9.226;2023-06-22T12:43:04;8.98;;;5.40;;
7253;SDS011;4060;49.186;9.226;2023-06-22T12:45:34;6.65;;;4.60;;
7253;SDS011;4060;49.186;9.226;2023-06-22T12:48:05;6.97;;;5.15;;
7253;SDS011;4060;49.186;9.226;2023-06-22T12:50:34;7.82;;;5.55;;
7253;SDS011;4060;49.186;9.226;2023-06-22T12:53:04;6.32;;;5.25;;
7253;SDS011;4060;49.186;9.226;2023-06-22T12:55:33;5.88;;;5.10;;
7253;SDS011;4060;49.186;9.226;2023-06-22T12:58:02;4.97;;;4.47;;
7253;SDS011;4060;49.186;9.226;2023-06-22T13:00:31;6.65;;;4.70;;
7253;SDS011;4060;49.186;9.226;2023-06-22T13:03:00;10.80;;;5.75;;
7253;SDS011;4060;49.186;9.226;2023-06-22T13:05:31;6.07;;;5.10;;
7253;SDS011;4060;49.186;9.226;2023-06-22T13:08:00;6.95;;;5.10;;
7253;SDS011;4060;49.186;9.226;2023-06-22T13:10:30;6.40;;;4.93;;
7253;SDS011;4060;49.186;9.226;2023-06-22T13:12:59;6.95;;;5.78;;
7253;SDS011;4060;49.186;9.226;2023-06-22T13:15:28;8.52;;;5.13;;
7253;SDS011;4060;49.186;9.226;2023-06-22T13:17:57;8.57;;;5.10;;
7253;SDS011;4060;49.186;9.226;2023-06-22T13:20:28;6.05;;;4.95;;
7253;SDS011;4060;49.186;9.226;2023-06-22T13:22:59;8.90;;;5.50;;
7253;SDS011;4060;49.186;9.226;2023-06-22T13:25:28;6.57;;;4.85;;
7253;SDS011;4060;49.186;9.226;2023-06-22T13:27:58;7.75;;;4.45;;
7253;SDS011;4060;49.186;9.226;2023-06-22T13:30:28;6.60;;;5.13;;
7253;SDS011;4060;49.186;9.226;2023-06-22T13:32:58;10.27;;;5.28;;
7253;SDS011;4060;49.186;9.226;2023-06-22T13:35:27;6.75;;;3.92;;
7253;SDS011;4060;49.186;9.226;2023-06-22T13:37:59;6.72;;;4.53;;
7253;SDS011;4060;49.186;9.226;2023-06-22T13:40:28;6.07;;;4.47;;
7253;SDS011;4060;49.186;9.226;2023-06-22T13:42:58;7.70;;;4.68;;
7253;SDS011;4060;49.186;9.226;2023-06-22T13:45:27;4.95;;;3.97;;
7253;SDS011;4060;49.186;9.226;2023-06-22T13:47:57;6.53;;;4.30;;
7253;SDS011;4060;49.186;9.226;2023-06-22T13:50:26;6.35;;;4.45;;
7253;SDS011;4060;49.186;9.226;2023-06-22T13:52:58;8.85;;;4.72;;
7253;SDS011;4060;49.186;9.226;2023-06-22T13:55:27;6.30;;;4.30;;
7253;SDS011;4060;49.186;9.226;2023-06-22T13:57:57;8.70;;;4.82;;
7253;SDS011;4060;49.186;9.226;2023-06-22T14:00:26;5.85;;;4.60;;
7253;SDS011;4060;49.186;9.226;2023-06-22T14:02:55;6.28;;;4.10;;
7253;SDS011;4060;49.186;9.226;2023-06-22T14:05:25;5.70;;;4.32;;
7253;SDS011;4060;49.186;9.226;2023-06-22T14:07:54;6.28;;;4.28;;
7253;SDS011;4060;49.186;9.226;2023-06-22T14:10:26;5.32;;;4.20;;
7253;SDS011;4060;49.186;9.226;2023-06-22T14:12:56;7.32;;;4.40;;
7253;SDS011;4060;49.186;9.226;2023-06-22T14:15:26;5.43;;;4.10;;
7253;SDS011;4060;49.186;9.226;2023-06-22T14:17:55;6.97;;;4.63;;
7253;SDS011;4060;49.186;9.226;2023-06-22T14:20:25;7.45;;;4.70;;
7253;SDS011;4060;49.186;9.226;2023-06-22T14:22:54;6.53;;;4.80;;
7253;SDS011;4060;49.186;9.226;2023-06-22T14:25:24;6.68;;;4.45;;
7253;SDS011;4060;49.186;9.226;2023-06-22T14:27:55;8.90;;;4.53;;
7253;SDS011;4060;49.186;9.226;2023-06-22T14:30:25;7.25;;;5.20;;
7253;SDS011;4060;49.186;9.226;2023-06-22T14:32:54;5.50;;;4.80;;
7253;SDS011;4060;49.186;9.226;2023-06-22T14:35:25;7.78;;;4.85;;
7253;SDS011;4060;49.186;9.226;2023-06-22T14:37:54;8.32;;;4.90;;
7253;SDS011;4060;49.186;9.226;2023-06-22T14:40:23;6.85;;;4.93;;
7253;SDS011;4060;49.186;9.226;2023-06-22T14:42:55;5.82;;;4.38;;
7253;SDS011;4060;49.186;9.226;2023-06-22T14:45:24;8.85;;;5.10;;
7253;SDS011;4060;49.186;9.226;2023-06-22T14:47:54;6.57;;;4.78;;
7253;SDS011;4060;49.186;9.226;2023-06-22T14:50:23;6.88;;;4.85;;
7253;SDS011;4060;49.186;9.226;2023-06-22T14:52:53;6.43;;;5.03;;
7253;SDS011;4060;49.186;9.226;2023-06-22T14:55:22;6.22;;;5.50;;
7253;SDS011;4060;49.186;9.226;2023-06-22T14:57:53;9.70;;;5.22;;
7253;SDS011;4060;49.186;9.226;2023-06-22T15:00:23;9.10;;;5.25;;
7253;SDS011;4060;49.186;9.226;2023-06-22T15:02:52;6.85;;;4.63;;
7253;SDS011;4060;49.186;9.226;2023-06-22T15:05:22;6.40;;;5.20;;
7253;SDS011;4060;49.186;9.226;2023-06-22T15:07:51;7.38;;;5.13;;
7253;SDS011;4060;49.186;9.226;2023-06-22T15:10:21;6.70;;;4.72;;
7253;SDS011;4060;49.186;9.226;2023-06-22T15:12:50;8.02;;;5.20;;
7253;SDS011;4060;49.186;9.226;2023-06-22T15:15:22;5.32;;;4.82;;
7253;SDS011;4060;49.186;9.226;2023-06-22T15:17:51;7.15;;;5.22;;
7253;SDS011;4060;49.186;9.226;2023-06-22T15:20:20;5.78;;;4.70;;
7253;SDS011;4060;49.186;9.226;2023-06-22T15:22:50;5.63;;;4.90;;
7253;SDS011;4060;49.186;9.226;2023-06-22T15:25:21;5.78;;;5.07;;
7253;SDS011;4060;49.186;9.226;2023-06-22T15:27:50;6.10;;;4.53;;
7253;SDS011;4060;49.186;9.226;2023-06-22T15:30:21;5.65;;;4.65;;
7253;SDS011;4060;49.186;9.226;2023-06-22T15:32:50;7.93;;;4.78;;
7253;SDS011;4060;49.186;9.226;2023-06-22T15:35:20;8.20;;;4.95;;
7253;SDS011;4060;49.186;9.226;2023-06-22T15:37:49;8.18;;;5.28;;
7253;SDS011;4060;49.186;9.226;2023-06-22T15:40:19;7.68;;;5.25;;